Latest Weather Observations for Young

IDN60801

Issued at 3:05 pm EST Thursday 2 October 2014 (issued every 30 minutes, with the page automatically refreshed every 10 minutes)

About weather observations | Map of weather stations | Latest weather observations for NSW | Other Formats
Station Details ID: 073138 Name: YOUNG AIRPORT Lat: -34.25 Lon: 148.25 Height: 379.6 m
Data from the previous 72 hours. | See also: Recent months at Young
Date/Time
EST
Temp
°C
App
Temp
°C
Dew
Point
Rel
Hum
%
Delta-T
°C
Wind Press
QNH
hPa
Press
MSL
hPa
Rain
since 9 am
mm
Dir
 
Spd
km/h
Gust
km/h
Spd
kts
Gust
kts
02/03:00pm 19.5 14.8 5.2 39 7.1 WSW 19 26 10 14 1020.3 1019.9 0.0
02/02:30pm 19.4 14.5 5.1 39 7.1 WSW 20 28 11 15 1020.5 1020.2 0.0
02/02:00pm 18.9 14.5 5.0 40 6.8 WSW 17 30 9 16 1020.9 1020.6 0.0
02/01:30pm 18.3 14.5 7.4 49 5.6 SW 17 24 9 13 1021.2 1020.9 0.0
02/01:00pm 18.0 14.9 7.1 49 5.6 WSW 13 26 7 14 1021.4 1021.1 0.0
02/12:30pm 16.9 12.7 5.8 48 5.5 WSW 17 26 9 14 1021.8 1021.5 0.0
02/12:00pm 15.9 11.4 4.3 46 5.5 WSW 17 24 9 13 1022.1 1021.8 0.0
02/11:00am 14.8 10.8 4.8 51 4.8 SW 15 22 8 12 1022.9 1022.7 0.0
02/10:30am 13.8 9.6 3.9 51 4.6 WSW 15 22 8 12 1023.2 1022.9 0.0
02/10:00am 13.8 10.0 4.1 52 4.5 SW 13 20 7 11 1023.5 1023.2 0.0
02/09:30am 13.2 10.3 4.6 56 4.0 N 9 15 5 8 1023.5 1023.2 0.0
02/09:00am 11.2 8.3 4.4 63 3.1 NNE 9 13 5 7 1023.6 1023.3 0.0
02/08:30am 9.1 6.6 4.5 73 2.1 N 7 9 4 5 1023.7 1023.4 0.0
02/08:00am 6.4 4.9 3.2 80 1.4 CALM 0 0 0 0 1023.7 1023.4 0.0
02/07:30am 3.5 0.6 1.7 88 0.7 S 6 7 3 4 1023.5 1023.2 0.0
02/07:00am 1.0 -0.9 0.4 96 0.2 CALM 0 0 0 0 1023.5 1023.2 0.0
02/06:30am -1.1 -4.5 -1.7 96 0.2 S 6 7 3 4 1023.3 1023.0 0.0
02/06:00am -2.3 -5.0 -2.7 97 0.0 S 2 6 1 3 1023.1 1022.8 0.0
02/05:30am -2.3 -5.8 -2.7 97 0.0 SE 6 7 3 4 1022.7 1022.5 0.0
02/05:00am -2.5 -4.9 -3.2 95 0.1 CALM 0 0 0 0 1022.6 1022.4 0.0
02/04:30am -2.3 -4.7 -2.8 96 0.1 CALM 0 0 0 0 1022.4 1022.1 0.0
02/04:00am -2.1 -5.8 -2.6 96 0.1 S 7 9 4 5 1022.4 1022.1 0.0
02/03:30am -2.1 -5.6 -2.6 96 0.1 SW 6 9 3 5 1022.2 1021.9 0.0
02/03:00am -1.9 -4.2 -2.5 96 0.1 CALM 0 2 0 1 1022.3 1022.0 0.0
02/02:30am -1.8 -5.2 -2.4 96 0.1 SSW 6 7 3 4 1022.5 1022.2 0.0
02/02:00am -1.7 -4.0 -2.3 96 0.1 S 0 0 0 0 1022.6 1022.4 0.0
02/01:30am -1.6 -3.9 -2.3 95 0.2 CALM 0 6 0 3 1022.8 1022.6 0.0
02/01:00am -1.4 -3.7 -2.1 95 0.2 S 0 0 0 0 1023.3 1023.0 0.0
02/12:30am -1.0 -3.2 -1.7 95 0.2 CALM 0 0 0 0 1023.5 1023.2 0.0
02/12:00am -0.7 -2.9 -1.4 95 0.2 S 0 6 0 3 1023.6 1023.3 0.0
 
Date/Time
EST
Temp
°C
App
Temp
°C
Dew
Point
Rel
Hum
%
Delta-T
°C
Wind Press
QNH
hPa
Press
MSL
hPa
Rain
since 9 am
mm
Dir
 
Spd
km/h
Gust
km/h
Spd
kts
Gust
kts
01/11:30pm -0.7 -4.1 -1.8 92 0.4 SSW 6 7 3 4 1023.8 1023.5 0.0
01/11:00pm -0.2 -3.5 -1.2 93 0.3 SSW 6 7 3 4 1023.7 1023.4 0.0
01/10:30pm 0.2 -2.7 -1.2 90 0.5 S 4 7 2 4 1023.7 1023.4 0.0
01/10:00pm 0.6 -1.5 -0.8 90 0.5 CALM 0 0 0 0 1023.6 1023.3 0.0
01/09:30pm 1.4 -1.0 -0.2 89 0.6 S 2 6 1 3 1023.5 1023.2 0.0
01/09:00pm 2.2 0.3 0.3 87 0.7 CALM 0 0 0 0 1023.4 1023.1 0.0
01/08:30pm 2.8 0.9 0.4 84 0.9 CALM 0 0 0 0 1023.3 1023.0 0.0
01/08:00pm 4.1 1.1 0.8 79 1.3 SW 6 9 3 5 1023.2 1022.9 0.0
01/07:30pm 5.3 2.2 1.6 77 1.5 ESE 7 9 4 5 1022.9 1022.7 0.0
01/07:00pm 7.0 4.9 1.5 68 2.3 W 2 7 1 4 1022.5 1022.2 0.0
01/06:30pm 8.6 5.1 1.1 59 3.1 WSW 9 11 5 6 1021.9 1021.6 0.0
01/06:00pm 10.4 6.5 1.0 52 4.0 SW 11 15 6 8 1021.5 1021.2 0.0
01/05:30pm 12.7 7.2 0.8 44 5.1 SW 19 26 10 14 1021.5 1021.2 0.0
01/05:00pm 13.8 8.0 0.1 39 5.8 SW 20 32 11 17 1021.7 1021.4 0.0
01/04:30pm 14.3 8.1 -0.6 36 6.3 SSW 22 32 12 17 1021.2 1020.9 0.0
01/04:00pm 14.8 8.6 -0.5 35 6.5 SW 22 30 12 16 1020.7 1020.4 0.0
01/03:30pm 15.1 8.8 -1.0 33 6.8 SW 22 35 12 19 1020.6 1020.3 0.0
01/03:00pm 15.8 10.1 0.8 36 6.6 SW 20 30 11 16 1020.5 1020.2 0.0
01/02:30pm 15.2 9.0 -0.5 34 6.7 SW 22 35 12 19 1020.7 1020.4 0.0
01/02:00pm 15.3 8.9 1.1 38 6.3 SSW 24 37 13 20 1020.8 1020.5 0.0
01/01:30pm 14.8 7.8 -0.5 35 6.5 SSW 26 37 14 20 1020.9 1020.6 0.0
01/01:00pm 14.9 7.6 0.0 36 6.4 S 28 35 15 19 1021.2 1020.9 0.0
01/12:30pm 14.7 7.7 -0.6 35 6.5 SSW 26 39 14 21 1021.2 1020.9 0.0
01/12:00pm 13.8 5.7 -0.3 38 6.0 S 32 43 17 23 1021.4 1021.1 0.0
01/11:30am 13.1 5.9 0.8 43 5.3 SSW 28 35 15 19 1021.5 1021.2 0.0
01/11:00am 12.6 6.6 1.0 45 5.0 SSW 22 37 12 20 1021.6 1021.3 0.0
01/10:30am 11.8 6.4 2.3 52 4.2 SW 20 30 11 16 1021.8 1021.5 0.0
01/10:00am 10.8 5.3 1.6 53 3.9 SSW 20 30 11 16 1022.0 1021.7 0.0
01/09:30am 10.5 4.8 3.1 60 3.3 SW 22 30 12 16 1021.9 1022.1 0.0
01/09:00am 9.8 2.9 2.6 61 3.1 WSW 28 35 15 19 1021.6 1021.8 0.0
01/08:30am 8.8 2.6 1.9 62 2.9 SW 24 37 13 20 1021.6 1021.8 0.0
01/08:00am 8.3 3.0 2.8 68 2.4 SW 20 32 11 17 1021.0 1021.1 0.0
01/07:30am 7.3 2.1 2.6 72 2.0 SW 19 26 10 14 1020.8 1020.9 0.0
01/07:00am 6.5 2.6 3.3 80 1.4 SW 13 19 7 10 1020.5 1020.6 0.0
01/06:30am 3.9 1.7 3.2 95 0.3 WSW 4 11 2 6 1020.5 1020.6 0.0
01/06:00am 1.7 -0.2 0.5 92 0.5 CALM 0 0 0 0 1019.8 1020.0 0.0
01/05:30am 2.5 -0.1 1.2 91 0.5 SSE 4 6 2 3 1019.2 1019.4 0.0
01/05:00am 3.4 1.3 1.6 88 0.7 SSE 2 6 1 3 1018.6 1018.7 0.0
01/04:30am 5.3 3.0 3.0 85 1.0 WSW 4 11 2 6 1018.0 1018.1 0.0
01/04:00am 6.4 3.3 3.4 81 1.3 WSW 9 17 5 9 1017.6 1017.7 0.0
01/03:30am 7.3 3.5 3.7 78 1.6 WSW 13 20 7 11 1017.1 1017.3 0.0
01/03:00am 7.9 4.1 4.1 77 1.7 WSW 13 20 7 11 1016.7 1016.9 0.0
01/02:30am 8.0 4.3 4.4 78 1.6 WSW 13 20 7 11 1016.5 1016.6 0.0
01/02:00am 8.0 5.0 4.2 77 1.7 W 9 15 5 8 1016.1 1016.2 0.0
01/01:30am 8.5 5.6 4.7 77 1.7 WSW 9 17 5 9 1015.9 1016.0 0.0
01/01:00am 9.4 5.7 4.6 72 2.2 WSW 13 20 7 11 1015.8 1015.9 0.0
01/12:30am 10.6 6.8 5.6 71 2.3 SW 15 20 8 11 1015.6 1015.7 0.0
01/12:00am 11.8 5.8 5.4 65 3.0 SW 26 37 14 20 1015.1 1015.2 0.0
 
Date/Time
EST
Temp
°C
App
Temp
°C
Dew
Point
Rel
Hum
%
Delta-T
°C
Wind Press
QNH
hPa
Press
MSL
hPa
Rain
since 9 am
mm
Dir
 
Spd
km/h
Gust
km/h
Spd
kts
Gust
kts
30/11:30pm 12.1 5.4 5.7 65 3.0 SW 30 48 16 26 1014.3 1014.5 0.0
30/11:00pm 13.1 5.5 7.5 69 2.8 SW 37 57 20 31 1013.8 1013.9 0.0
30/10:32pm 14.6 6.6 7.4 62 3.6 SW 39 61 21 33 1013.2 1013.3 0.0
30/10:30pm 14.6 7.0 7.6 63 3.5 SW 37 52 20 28 1013.1 1013.2 0.0
30/10:03pm 16.9 10.1 5.2 46 5.7 WSW 30 61 16 33 1012.6 1012.7 0.0
30/10:00pm 15.8 10.5 2.9 42 6.0 W 20 33 11 18 1012.1 1012.1 0.0
30/09:30pm 16.0 12.6 1.7 38 6.5 NW 9 13 5 7 1011.3 1011.4 0.0
30/09:00pm 17.7 14.6 1.2 33 7.5 WNW 7 13 4 7 1011.5 1011.6 0.0
30/08:30pm 18.4 14.9 1.0 31 7.9 WNW 9 15 5 8 1011.5 1011.6 0.0
30/08:00pm 17.6 14.0 3.1 38 6.8 WNW 11 26 6 14 1011.3 1011.4 0.0
30/07:30pm 13.6 10.8 5.0 56 4.1 NNW 9 9 5 5 1011.0 1011.1 0.0
30/07:00pm 14.6 12.6 4.6 51 4.8 NW 4 9 2 5 1010.9 1011.0 0.0
30/06:30pm 17.8 14.3 3.7 39 6.7 NW 11 15 6 8 1010.6 1010.7 0.0
30/06:00pm 21.5 18.0 3.7 31 8.7 WNW 11 17 6 9 1010.5 1010.6 0.0
30/05:30pm 23.0 19.3 4.5 30 9.3 W 13 19 7 10 1010.3 1010.4 0.0
30/05:00pm 24.2 20.3 5.5 30 9.7 W 15 22 8 12 1010.3 1010.4 0.0
30/04:30pm 25.1 20.9 5.8 29 10.1 W 17 30 9 16 1010.3 1010.4 0.0
30/04:00pm 25.6 21.4 5.8 28 10.4 WNW 17 33 9 18 1010.2 1010.3 0.0
30/03:30pm 25.7 21.9 5.8 28 10.4 W 15 28 8 15 1010.3 1010.4 0.0
30/03:00pm 26.2 22.3 7.3 30 10.2 WNW 17 28 9 15 1010.7 1010.8 0.0
30/02:30pm 26.4 22.5 6.9 29 10.4 WNW 17 32 9 17 1011.1 1011.2 0.0
30/02:00pm 25.1 20.2 5.3 28 10.2 W 20 33 11 18 1011.6 1011.7 0.0
30/01:30pm 25.5 21.4 6.2 29 10.2 W 17 28 9 15 1011.8 1011.9 0.0
30/01:00pm 26.0 22.2 8.9 34 9.5 W 19 30 10 16 1012.2 1012.3 0.0
30/12:30pm 25.5 22.1 7.6 32 9.7 W 15 26 8 14 1012.6 1012.7 0.0
30/12:00pm 24.5 20.2 7.2 33 9.2 W 19 28 10 15 1012.8 1012.9 0.0
30/11:30am 25.1 21.3 7.7 33 9.4 NW 17 22 9 12 1013.2 1013.3 0.0
30/11:00am 24.8 20.4 6.5 31 9.6 NNW 19 33 10 18 1013.5 1013.6 0.0
30/10:30am 23.4 20.2 9.8 42 7.5 NNW 17 24 9 13 1014.0 1014.1 0.0
30/10:00am 22.2 19.0 8.3 41 7.5 NNW 15 22 8 12 1014.4 1014.6 0.0
30/09:30am 21.4 18.5 8.3 43 7.0 NNW 13 19 7 10 1014.8 1014.9 0.0
30/09:00am 19.8 17.5 10.5 55 5.1 N 13 19 7 10 1014.9 1015.0 0.0
30/08:30am 17.1 15.7 9.5 61 4.0 N 7 11 4 6 1015.3 1015.4 0.0
30/08:00am 14.3 14.4 10.1 76 2.2 CALM 0 7 0 4 1015.1 1015.2 0.0
30/07:30am 10.8 10.4 8.4 85 1.2 CALM 0 0 0 0 1015.0 1015.1 0.0
30/07:00am 8.2 7.5 7.1 93 0.5 CALM 0 0 0 0 1014.9 1015.0 0.0
30/06:30am 6.2 4.1 5.8 97 0.2 S 6 6 3 3 1014.8 1014.9 0.0
30/06:00am 5.0 3.8 4.6 97 0.2 CALM 0 9 0 5 1014.3 1014.5 0.0
30/05:30am 5.2 4.0 4.8 97 0.2 CALM 0 0 0 0 1014.0 1014.1 0.0
30/05:00am 5.1 3.2 4.8 98 0.1 SSW 4 7 2 4 1013.7 1013.8 0.0
30/04:30am 5.1 2.8 5.0 99 0.0 SE 6 7 3 4 1013.5 1013.6 0.0
30/04:00am 3.9 1.4 3.5 97 0.2 SW 6 7 3 4 1013.4 1013.5 0.0
30/03:30am 3.9 1.3 3.3 96 0.3 S 6 7 3 4 1013.4 1013.5 0.0
30/03:00am 4.2 1.7 3.6 96 0.3 S 6 7 3 4 1013.6 1013.7 0.0
30/02:30am 4.3 1.8 3.9 97 0.2 SSW 6 7 3 4 1013.6 1013.7 0.0
30/02:00am 4.4 1.9 3.8 96 0.3 SSW 6 9 3 5 1013.7 1013.8 0.0
30/01:30am 5.1 2.7 4.5 96 0.3 S 6 7 3 4 1014.1 1014.2 0.0
30/01:00am 5.2 2.9 4.6 96 0.3 SSW 6 9 3 5 1014.1 1014.2 0.0
30/12:30am 5.3 2.4 4.4 94 0.4 S 9 11 5 6 1014.4 1014.6 0.0
30/12:00am 6.0 3.7 5.0 93 0.4 SSW 6 7 3 4 1014.7 1014.8 0.0
 
Date/Time
EST
Temp
°C
App
Temp
°C
Dew
Point
Rel
Hum
%
Delta-T
°C
Wind Press
QNH
hPa
Press
MSL
hPa
Rain
since 9 am
mm
Dir
 
Spd
km/h
Gust
km/h
Spd
kts
Gust
kts
29/11:30pm 6.4 4.2 5.4 93 0.5 SSW 6 7 3 4 1014.7 1014.8 0.0
29/11:00pm 6.7 4.5 5.5 92 0.5 SSW 6 9 3 5 1014.9 1015.0 0.0
29/10:30pm 6.4 4.2 5.4 93 0.5 SSW 6 7 3 4 1015.1 1015.2 0.0
29/10:00pm 6.7 4.3 5.3 91 0.6 S 7 9 4 5 1015.2 1015.3 0.0
29/09:30pm 7.2 5.1 5.8 91 0.6 SW 6 9 3 5 1015.3 1015.4 0.0
29/09:00pm 8.2 6.3 6.5 89 0.8 SW 6 9 3 5 1015.3 1015.4 0.0
29/08:30pm 8.9 7.4 7.0 88 0.9 SW 4 7 2 4 1015.3 1015.4 0.0
29/08:00pm 10.0 7.8 7.8 86 1.1 SSW 9 9 5 5 1015.2 1015.3 0.0
29/07:30pm 10.7 8.9 8.1 84 1.3 SSW 7 7 4 4 1015.0 1015.1 0.0
29/07:00pm 13.0 11.8 9.4 79 1.9 S 6 7 3 4 1014.7 1014.8 0.0
29/06:30pm 14.8 13.6 10.4 75 2.4 SSW 7 11 4 6 1014.2 1014.3 0.0
29/06:00pm 18.2 17.4 11.0 63 4.0 W 6 7 3 4 1013.9 1014.0 0.0
29/05:30pm 23.1 22.2 11.2 47 6.8 W 7 9 4 5 1013.8 1013.9 0.0
29/05:00pm 24.9 22.8 8.4 35 9.0 WSW 9 15 5 8 1013.6 1013.7 0.0
29/04:30pm 25.5 23.2 8.9 35 9.2 WSW 11 15 6 8 1013.5 1013.6 0.0
29/04:00pm 26.1 22.8 8.1 32 9.8 WSW 15 20 8 11 1013.4 1013.5 0.0
29/03:30pm 26.5 22.4 4.3 24 11.4 WNW 15 24 8 13 1013.4 1013.5 0.0

Other Formats:

Comma delimited format used in spreadsheet applications
http://www.bom.gov.au/fwo/IDN60801/IDN60801.94712.axf

JavaScript Object Notation format (JSON) in row-major order
http://www.bom.gov.au/fwo/IDN60801/IDN60801.94712.json